Terminal Aerodrome Forecast
Issued by NWS

Home | Current Version | Previous Version | Text Only | Print | Product List | Glossary Off
Versions: 1 2 3 4 5 6 7 8 9 10 11 12 13 14 15 16 17 18 19 20 21 22 23

000
FTUS43 KGRB 312200 AAC
TAFATW
TAF AMD
KATW 312241Z 3123/0118 32025G45KT 1SM TSRA OVC030CB
      TEMPO 3123/3124 23007KT P6SM NSW BKN050
     FM010000 23007KT P6SM BKN035
     FM010200 VRB03KT P6SM SCT080
     FM010900 VRB03KT 4SM BR SCT250
     FM011200 22004KT P6SM SCT030 BKN080=

USA.gov is the U.S. government's official web portal to all federal, state and local government web resources and services.